createdAt,value
2023-02-14T00:01:28.400Z,4.56
2023-02-14T00:06:32.436Z,4.33
2023-02-14T00:11:34.184Z,4.46
2023-02-14T00:16:35.893Z,4.57
2023-02-14T00:21:38.927Z,4.88
2023-02-14T00:26:41.246Z,4.96
2023-02-14T00:31:43.745Z,4.83
2023-02-14T00:36:46.053Z,4.62
2023-02-14T00:41:50.351Z,4.52
2023-02-14T00:46:51.906Z,4.38
2023-02-14T00:51:53.528Z,4.38
2023-02-14T00:56:55.071Z,4.35
2023-02-14T01:01:56.646Z,4.50
2023-02-14T01:06:58.220Z,4.65
2023-02-14T01:11:59.872Z,4.71
2023-02-14T01:17:01.431Z,4.65
2023-02-14T01:22:03.019Z,4.39
2023-02-14T01:27:04.626Z,4.30
2023-02-14T01:32:07.305Z,4.14
2023-02-14T01:37:08.917Z,4.09
2023-02-14T01:42:11.203Z,4.08
2023-02-14T01:47:15.639Z,4.14
2023-02-14T01:52:40.427Z,4.17
2023-02-14T01:57:54.452Z,4.29
2023-02-14T02:02:58.892Z,4.50
2023-02-14T02:08:01.304Z,4.60
2023-02-14T02:13:07.097Z,4.64
2023-02-14T02:18:20.397Z,4.73
2023-02-14T02:23:43.771Z,4.62
2023-02-14T02:28:51.377Z,4.47
2023-02-14T02:34:29.060Z,4.39
2023-02-14T02:39:45.985Z,4.25
2023-02-14T02:45:09.001Z,4.23
2023-02-14T02:50:32.846Z,4.21
2023-02-14T02:55:40.670Z,4.18
2023-02-14T03:00:43.274Z,4.19
2023-02-14T03:05:45.262Z,4.11
2023-02-14T03:10:53.531Z,4.09
2023-02-14T03:16:01.371Z,4.03
2023-02-14T03:21:35.586Z,4.05
2023-02-14T03:26:51.535Z,4.01
2023-02-14T03:32:25.394Z,3.96
2023-02-14T03:37:33.972Z,3.83
2023-02-14T03:42:52.880Z,3.85
2023-02-14T03:47:58.961Z,3.86
2023-02-14T03:53:02.679Z,3.73
2023-02-14T03:58:11.146Z,3.67
2023-02-14T04:03:15.146Z,3.66
2023-02-14T04:08:22.002Z,3.72
2023-02-14T04:13:23.452Z,3.73
2023-02-14T04:18:25.016Z,3.90
2023-02-14T04:23:26.523Z,3.93
2023-02-14T04:28:28.079Z,3.90
2023-02-14T04:33:29.733Z,3.90
2023-02-14T04:38:32.563Z,3.91
2023-02-14T04:43:34.106Z,3.92
2023-02-14T04:48:35.669Z,3.94
2023-02-14T04:53:37.639Z,3.90
2023-02-14T04:58:39.235Z,3.95
2023-02-14T05:03:40.766Z,3.84
2023-02-14T05:08:42.296Z,3.78
2023-02-14T05:13:43.991Z,3.71
2023-02-14T05:18:45.523Z,3.75
2023-02-14T05:23:47.141Z,3.73
2023-02-14T05:28:48.732Z,3.60
2023-02-14T05:33:50.435Z,3.57
2023-02-14T05:38:51.965Z,3.49
2023-02-14T05:43:53.501Z,3.34
2023-02-14T05:48:55.047Z,3.18
2023-02-14T05:53:57.183Z,3.05
2023-02-14T05:58:58.721Z,3.09
2023-02-14T06:04:00.491Z,3.42
2023-02-14T06:09:02.152Z,3.57
2023-02-14T06:14:03.891Z,3.59
2023-02-14T06:19:05.628Z,3.51
2023-02-14T06:24:07.211Z,3.58
2023-02-14T06:29:08.851Z,3.50
2023-02-14T06:34:10.720Z,3.18
2023-02-14T06:39:12.304Z,2.99
2023-02-14T06:44:13.991Z,2.91
2023-02-14T06:49:15.571Z,2.85
2023-02-14T06:54:18.541Z,2.92
2023-02-14T06:59:20.065Z,2.89
2023-02-14T07:04:21.614Z,3.01
2023-02-14T07:09:23.508Z,3.06
2023-02-14T07:14:25.006Z,3.27
2023-02-14T07:19:26.656Z,3.41
2023-02-14T07:24:28.234Z,3.61
2023-02-14T07:29:29.787Z,3.85
2023-02-14T07:34:31.479Z,4.04
2023-02-14T07:39:33.078Z,4.32
2023-02-14T07:44:34.600Z,4.44
2023-02-14T07:49:36.785Z,4.58
2023-02-14T07:54:38.367Z,4.73
2023-02-14T07:59:39.888Z,5.58
2023-02-14T08:04:41.548Z,6.09
2023-02-14T08:09:43.099Z,6.49
2023-02-14T08:14:44.744Z,6.90
2023-02-14T08:19:46.318Z,7.37
2023-02-14T08:24:47.865Z,7.31
2023-02-14T08:29:49.538Z,7.47
2023-02-14T08:34:51.099Z,7.61
2023-02-14T08:39:52.823Z,7.91
2023-02-14T08:44:54.386Z,7.88
2023-02-14T08:49:55.942Z,8.08
2023-02-14T08:54:58.175Z,8.30
2023-02-14T08:59:59.726Z,9.51
2023-02-14T09:05:01.572Z,9.49
2023-02-14T09:10:07.045Z,9.48
2023-02-14T09:15:09.699Z,9.41
2023-02-14T09:20:13.175Z,10.13
2023-02-14T09:25:16.441Z,10.34
2023-02-14T09:30:18.070Z,9.00
2023-02-14T09:35:20.288Z,9.00
2023-02-14T09:40:22.097Z,9.42
2023-02-14T09:45:29.472Z,9.56
2023-02-14T09:50:37.056Z,9.96
2023-02-14T09:56:01.678Z,10.31
2023-02-14T10:01:28.031Z,10.98
2023-02-14T10:06:53.679Z,10.92
2023-02-14T10:11:59.340Z,10.72
2023-02-14T10:17:18.597Z,10.57
2023-02-14T10:22:26.726Z,10.38
2023-02-14T10:27:39.560Z,10.47
2023-02-14T10:32:50.351Z,10.85
2023-02-14T10:38:28.056Z,11.34
2023-02-14T10:43:57.683Z,12.77
2023-02-14T10:49:05.219Z,13.14
2023-02-14T10:54:27.031Z,12.82
2023-02-14T10:59:50.878Z,12.92
2023-02-14T11:04:52.949Z,13.05
2023-02-14T11:09:55.335Z,12.07
2023-02-14T11:15:14.550Z,12.26
2023-02-14T11:20:19.548Z,13.10
2023-02-14T11:25:24.481Z,12.82
2023-02-14T11:30:30.472Z,12.50
2023-02-14T11:35:32.972Z,12.47
2023-02-14T11:40:40.107Z,12.86
2023-02-14T11:45:44.890Z,12.83
2023-02-14T11:50:58.727Z,12.96
2023-02-14T11:56:00.598Z,13.68
2023-02-14T12:01:03.437Z,13.06
2023-02-14T12:06:05.794Z,13.19
2023-02-14T12:11:25.257Z,14.58
2023-02-14T12:16:35.244Z,14.11
2023-02-14T12:21:55.210Z,13.86
2023-02-14T12:27:28.067Z,13.47
2023-02-14T12:32:31.816Z,14.48
2023-02-14T12:38:04.647Z,13.78
2023-02-14T12:43:31.289Z,14.03
2023-02-14T12:48:57.418Z,14.73
2023-02-14T12:54:26.923Z,14.09
2023-02-14T12:59:56.787Z,13.65
2023-02-14T13:05:29.730Z,13.86
2023-02-14T13:11:02.221Z,13.63
2023-02-14T13:16:23.786Z,13.67
2023-02-14T13:21:30.761Z,13.54
2023-02-14T13:26:38.805Z,14.01
2023-02-14T13:31:41.974Z,13.99
2023-02-14T13:36:44.915Z,14.01
2023-02-14T13:41:46.907Z,13.84
2023-02-14T13:46:51.574Z,13.61
2023-02-14T13:51:56.487Z,14.30
2023-02-14T13:57:03.923Z,14.23
2023-02-14T14:02:29.952Z,14.30
2023-02-14T14:07:31.945Z,14.00
2023-02-14T14:12:33.498Z,14.18
2023-02-14T14:18:08.681Z,14.00
2023-02-14T14:23:35.329Z,13.89
2023-02-14T14:28:36.895Z,13.88
2023-02-14T14:33:38.549Z,14.07
2023-02-14T14:38:50.237Z,13.89
2023-02-14T14:43:51.843Z,14.09
2023-02-14T14:48:55.517Z,14.20
2023-02-14T14:54:01.053Z,14.11
2023-02-14T14:59:25.683Z,13.93
2023-02-14T15:04:35.599Z,13.85
2023-02-14T15:09:37.243Z,13.99
2023-02-14T15:14:43.421Z,13.77
2023-02-14T15:19:54.438Z,13.32
2023-02-14T15:24:57.912Z,13.22
2023-02-14T15:30:03.472Z,12.92
2023-02-14T15:35:06.756Z,12.78
2023-02-14T15:40:16.785Z,12.73
2023-02-14T15:45:27.821Z,12.48
2023-02-14T15:50:35.494Z,11.96
2023-02-14T15:55:37.201Z,11.80
2023-02-14T16:00:38.975Z,11.39
2023-02-14T16:05:47.547Z,11.21
2023-02-14T16:11:32.519Z,10.97
2023-02-14T16:17:01.829Z,10.72
2023-02-14T16:22:04.940Z,10.50
2023-02-14T16:27:06.462Z,10.20
2023-02-14T16:32:17.720Z,9.84
2023-02-14T16:37:24.750Z,9.71
2023-02-14T16:42:29.443Z,9.58
2023-02-14T16:47:31.044Z,9.52
2023-02-14T16:52:35.317Z,9.43
2023-02-14T16:57:40.984Z,9.06
2023-02-14T17:02:44.182Z,8.88
2023-02-14T17:07:46.144Z,8.67
2023-02-14T17:12:49.064Z,8.44
2023-02-14T17:17:54.347Z,8.15
2023-02-14T17:22:56.305Z,8.13
2023-02-14T17:27:57.825Z,7.93
2023-02-14T17:32:59.858Z,7.75
2023-02-14T17:38:01.674Z,7.60
2023-02-14T17:43:03.817Z,7.46
2023-02-14T17:48:05.606Z,7.32
2023-02-14T17:53:07.319Z,7.24
2023-02-14T17:58:08.928Z,7.02
2023-02-14T18:03:10.542Z,6.73
2023-02-14T18:08:12.194Z,6.52
2023-02-14T18:13:13.731Z,6.36
2023-02-14T18:18:15.483Z,6.16
2023-02-14T18:23:21.104Z,5.92
2023-02-14T18:28:25.222Z,5.68
2023-02-14T18:33:26.804Z,5.55
2023-02-14T18:38:28.555Z,5.50
2023-02-14T18:43:30.480Z,5.36
2023-02-14T18:48:32.660Z,5.26
2023-02-14T18:53:35.274Z,5.12
2023-02-14T18:58:36.969Z,5.01
2023-02-14T19:03:39.669Z,5.03
2023-02-14T19:08:41.745Z,5.18
2023-02-14T19:13:48.847Z,5.03
2023-02-14T19:18:51.002Z,4.97
2023-02-14T19:23:54.971Z,5.00
2023-02-14T19:28:58.303Z,4.96
2023-02-14T19:33:59.922Z,4.91
2023-02-14T19:39:01.760Z,4.89
2023-02-14T19:44:05.502Z,4.87
2023-02-14T19:49:07.159Z,4.87
2023-02-14T19:54:09.612Z,4.79
2023-02-14T19:59:11.943Z,4.83
2023-02-14T20:04:16.310Z,4.64
2023-02-14T20:09:19.051Z,4.57
2023-02-14T20:14:26.266Z,4.44
2023-02-14T20:19:31.098Z,4.43
2023-02-14T20:24:32.786Z,4.49
2023-02-14T20:29:34.396Z,4.35
2023-02-14T20:34:35.979Z,4.35
2023-02-14T20:39:38.208Z,4.32
2023-02-14T20:44:39.907Z,4.28
2023-02-14T20:49:41.543Z,4.24
2023-02-14T20:54:43.140Z,4.15
2023-02-14T20:59:44.709Z,4.12
2023-02-14T21:04:46.366Z,4.06
2023-02-14T21:09:48.016Z,4.02
2023-02-14T21:14:49.630Z,3.99
2023-02-14T21:19:51.188Z,3.95
2023-02-14T21:24:52.720Z,3.97
2023-02-14T21:29:54.587Z,3.81
2023-02-14T21:34:56.098Z,3.70
2023-02-14T21:39:57.683Z,3.74
2023-02-14T21:44:59.336Z,3.70
2023-02-14T21:50:00.878Z,3.62
2023-02-14T21:55:02.535Z,3.59
2023-02-14T22:00:05.075Z,3.63
2023-02-14T22:05:12.192Z,3.57
2023-02-14T22:10:13.765Z,3.64
2023-02-14T22:15:15.593Z,3.57
2023-02-14T22:20:17.414Z,3.57
2023-02-14T22:25:19.006Z,3.53
2023-02-14T22:30:21.028Z,3.49
2023-02-14T22:35:22.562Z,3.46
2023-02-14T22:40:24.080Z,3.53
2023-02-14T22:45:25.747Z,3.49
2023-02-14T22:50:27.364Z,3.46
2023-02-14T22:55:30.540Z,3.45
2023-02-14T23:00:32.078Z,3.37
2023-02-14T23:05:33.602Z,3.31
2023-02-14T23:10:35.176Z,3.32
2023-02-14T23:15:36.914Z,3.18
2023-02-14T23:20:38.433Z,3.17
2023-02-14T23:25:42.495Z,3.09
2023-02-14T23:30:44.030Z,3.02
2023-02-14T23:35:45.604Z,3.01
2023-02-14T23:40:47.110Z,2.95
2023-02-14T23:45:48.946Z,2.87
2023-02-14T23:50:50.470Z,2.83
2023-02-14T23:55:51.994Z,2.83
